CJP6 weather

Camsell Portage Airport
Camsell Portage, Saskatchewan, Canada

Public forecast

Using degrees Celsius for public forecast. Weather courtesy of forecast.io.

Closest aviation weather report (METAR) to Camsell Portage Airport

Closest report is Fort Chipewyan Airport, 76.1 nm (141.0 km) SW. Retrieved 2020/06/01 18:00 UTC (33 minutes ago):

CYPY 011800Z AUTO 30010KT 9SM BKN011 OVC036 10/09 A2949 RMK PCPN 05MM PAST HR SLP996

Closest aviation forecast (TAF) to Camsell Portage Airport

Closest forecast is Fort Chipewyan Airport, 76.1 nm (141.0 km) SW. Retrieved 2020/06/01 18:39 UTC (0 seconds ago):

TAF CYPY 011738Z 0118/0206 29012G22KT P6SM -RA OVC012 TEMPO 0118/0121 2SM SHRA BR OVC007 FM012100 30012KT P6SM -RA OVC025 TEMPO 0121/0206 5SM -SHRA BR OVC012 BECMG 0122/0124 30008KT RMK FCST BASED ON AUTO OBS NXT FCST BY 020000Z